CheckWX is a tool to help pilots better visualize weather data.  It is not intended as a substitute for an official pre-flight weather briefing.

12:23:06 UTC

KPAM TAF
Tyndall AFB Airport
Panama City, Florida, USA
TAF KPAM 271000Z 2710/2816 02006KT 9999 SCT250 QNH3010INS BECMG 2714/2715 34006KT 9999 SCT050 QNH3008INS BECMG 2719/2720 28012KT 9999 BKN050 QNH3004INS TEMPO 2720/2724 VRB12G20KT 4800 TSRA BKN050CB BECMG 2802/2803 VRB06KT 9999 BKN250 QNH3005INS TX36/2717Z TN24/2710Z

Jun-27@
10:00 UTC

Jun-27 @ 10:00 UTC

Jun-27@
14:00 UTC

Jun-27 @ 14:00 UTC

TAF KPAM 271000Z 2710/2816 02006KT 9999 SCT250 QNH3010INS
Wind
  • 020° at 6 KTS
Cloud Levels
  • Scattered at 25,000' AGL

Jun-27@
14:00 UTC

Jun-27 @ 14:00 UTC

Jun-27@
19:00 UTC

Jun-27 @ 19:00 UTC

BECMG 2714/2715 34006KT 9999 SCT050 QNH3008INS

Becoming

Becoming Conditions expected by Thu, Jun 27, 2019 @ 15:00 UTC

Wind
  • 340° at 6 KTS
Cloud Levels
  • Scattered at 5,000' AGL

Jun-27@
19:00 UTC

Jun-27 @ 19:00 UTC

Jun-28@
02:00 UTC

Jun-28 @ 02:00 UTC

BECMG 2719/2720 28012KT 9999 BKN050 QNH3004INS

Becoming

Becoming Conditions expected by Thu, Jun 27, 2019 @ 20:00 UTC

Wind
  • 280° at 12 KTS
Cloud Levels
  • Broken at 5,000' AGL

Jun-27@
20:00 UTC

Jun-27 @ 20:00 UTC

Jun-28@
00:00 UTC

Jun-28 @ 00:00 UTC

TEMPO 2720/2724 VRB12G20KT 4800 TSRA BKN050CB

Temporary

Temporary Changes expected for less than half the time period

Wind
  • Variable at 12 KTS
  • {Gusting to 20 KTS
Conditions
Thunderstorm, Rain
Cloud Levels
  • Broken at 5,000' AGL

Jun-28@
02:00 UTC

Jun-28 @ 02:00 UTC

Jun-28@
16:00 UTC

Jun-28 @ 16:00 UTC

BECMG 2802/2803 VRB06KT 9999 BKN250 QNH3005INS TX36/2717Z TN24/2710Z

Becoming

Becoming Conditions expected by Fri, Jun 28, 2019 @ 03:00 UTC

Wind
  • Variable at 6 KTS
Cloud Levels
  • Broken at 25,000' AGL